sensor_id;sensor_type;location;lat;lon;timestamp;temperature;humidity
30037;DHT22;36325;51.512;-0.382;2023-05-08T00:01:34;13.20;99.90
30037;DHT22;36325;51.512;-0.382;2023-05-08T00:04:01;13.10;99.90
30037;DHT22;36325;51.512;-0.382;2023-05-08T00:06:29;13.10;99.90
30037;DHT22;36325;51.512;-0.382;2023-05-08T00:08:56;13.00;99.90
30037;DHT22;36325;51.512;-0.382;2023-05-08T00:11:24;13.10;99.90
30037;DHT22;36325;51.512;-0.382;2023-05-08T00:13:51;13.00;99.90
30037;DHT22;36325;51.512;-0.382;2023-05-08T00:16:19;12.90;99.90
30037;DHT22;36325;51.512;-0.382;2023-05-08T00:18:46;12.90;99.90
30037;DHT22;36325;51.512;-0.382;2023-05-08T00:21:13;12.80;99.90
30037;DHT22;36325;51.512;-0.382;2023-05-08T00:26:08;12.80;99.90
30037;DHT22;36325;51.512;-0.382;2023-05-08T00:31:03;12.80;99.90
30037;DHT22;36325;51.512;-0.382;2023-05-08T00:33:30;12.80;99.90
30037;DHT22;36325;51.512;-0.382;2023-05-08T00:36:04;12.80;99.90
30037;DHT22;36325;51.512;-0.382;2023-05-08T00:38:33;12.80;99.90
30037;DHT22;36325;51.512;-0.382;2023-05-08T00:41:01;12.80;99.90
30037;DHT22;36325;51.512;-0.382;2023-05-08T00:43:28;12.80;99.90
30037;DHT22;36325;51.512;-0.382;2023-05-08T00:45:58;12.80;99.90
30037;DHT22;36325;51.512;-0.382;2023-05-08T00:48:29;12.90;99.90
30037;DHT22;36325;51.512;-0.382;2023-05-08T00:50:57;12.80;99.90
30037;DHT22;36325;51.512;-0.382;2023-05-08T00:53:25;14.40;99.90
30037;DHT22;36325;51.512;-0.382;2023-05-08T00:55:53;12.70;99.90
30037;DHT22;36325;51.512;-0.382;2023-05-08T00:58:22;12.60;99.90
30037;DHT22;36325;51.512;-0.382;2023-05-08T01:00:51;12.50;99.90
30037;DHT22;36325;51.512;-0.382;2023-05-08T01:03:21;12.40;99.90
30037;DHT22;36325;51.512;-0.382;2023-05-08T01:05:49;12.40;99.90
30037;DHT22;36325;51.512;-0.382;2023-05-08T01:08:16;12.40;99.90
30037;DHT22;36325;51.512;-0.382;2023-05-08T01:16:43;12.40;99.90
30037;DHT22;36325;51.512;-0.382;2023-05-08T01:19:41;12.40;99.90
30037;DHT22;36325;51.512;-0.382;2023-05-08T01:31:23;12.50;99.90
30037;DHT22;36325;51.512;-0.382;2023-05-08T01:39:16;12.50;99.90
30037;DHT22;36325;51.512;-0.382;2023-05-08T01:41:49;12.50;99.90
30037;DHT22;36325;51.512;-0.382;2023-05-08T01:44:36;12.50;99.90
30037;DHT22;36325;51.512;-0.382;2023-05-08T01:47:05;12.50;99.90
30037;DHT22;36325;51.512;-0.382;2023-05-08T01:49:48;12.50;99.90
30037;DHT22;36325;51.512;-0.382;2023-05-08T01:52:36;12.50;99.90
30037;DHT22;36325;51.512;-0.382;2023-05-08T01:55:11;12.40;99.90
30037;DHT22;36325;51.512;-0.382;2023-05-08T01:57:46;12.40;99.90
30037;DHT22;36325;51.512;-0.382;2023-05-08T02:00:20;12.40;99.90
30037;DHT22;36325;51.512;-0.382;2023-05-08T02:02:49;12.40;99.90
30037;DHT22;36325;51.512;-0.382;2023-05-08T02:05:18;12.30;99.90
30037;DHT22;36325;51.512;-0.382;2023-05-08T02:07:48;12.30;99.90
30037;DHT22;36325;51.512;-0.382;2023-05-08T02:10:17;12.30;99.90
30037;DHT22;36325;51.512;-0.382;2023-05-08T02:12:45;12.20;99.90
30037;DHT22;36325;51.512;-0.382;2023-05-08T02:15:15;12.20;99.90
30037;DHT22;36325;51.512;-0.382;2023-05-08T02:17:45;12.20;99.90
30037;DHT22;36325;51.512;-0.382;2023-05-08T02:20:14;12.20;99.90
30037;DHT22;36325;51.512;-0.382;2023-05-08T02:22:49;12.20;99.90
30037;DHT22;36325;51.512;-0.382;2023-05-08T02:25:18;12.10;99.90
30037;DHT22;36325;51.512;-0.382;2023-05-08T02:27:46;12.10;99.90
30037;DHT22;36325;51.512;-0.382;2023-05-08T02:30:16;12.00;99.90
30037;DHT22;36325;51.512;-0.382;2023-05-08T02:32:46;12.00;99.90
30037;DHT22;36325;51.512;-0.382;2023-05-08T02:35:16;12.00;99.90
30037;DHT22;36325;51.512;-0.382;2023-05-08T02:37:47;11.90;99.90
30037;DHT22;36325;51.512;-0.382;2023-05-08T02:40:16;11.90;99.90
30037;DHT22;36325;51.512;-0.382;2023-05-08T02:42:44;11.90;99.90
30037;DHT22;36325;51.512;-0.382;2023-05-08T02:45:13;11.80;99.90
30037;DHT22;36325;51.512;-0.382;2023-05-08T02:48:22;11.80;99.90
30037;DHT22;36325;51.512;-0.382;2023-05-08T02:51:09;11.80;99.90
30037;DHT22;36325;51.512;-0.382;2023-05-08T02:53:53;11.80;99.90
30037;DHT22;36325;51.512;-0.382;2023-05-08T02:56:35;11.80;99.90
30037;DHT22;36325;51.512;-0.382;2023-05-08T02:59:17;11.90;99.90
30037;DHT22;36325;51.512;-0.382;2023-05-08T03:01:58;10.90;99.90
30037;DHT22;36325;51.512;-0.382;2023-05-08T03:04:33;11.70;99.90
30037;DHT22;36325;51.512;-0.382;2023-05-08T03:07:03;11.80;99.90
30037;DHT22;36325;51.512;-0.382;2023-05-08T03:09:38;11.80;99.90
30037;DHT22;36325;51.512;-0.382;2023-05-08T03:12:11;11.70;99.90
30037;DHT22;36325;51.512;-0.382;2023-05-08T03:14:52;11.70;99.90
30037;DHT22;36325;51.512;-0.382;2023-05-08T03:17:23;11.70;99.90
30037;DHT22;36325;51.512;-0.382;2023-05-08T03:19:55;11.70;99.90
30037;DHT22;36325;51.512;-0.382;2023-05-08T03:22:25;11.70;99.90
30037;DHT22;36325;51.512;-0.382;2023-05-08T03:24:55;11.70;99.90
30037;DHT22;36325;51.512;-0.382;2023-05-08T03:27:24;11.70;99.90
30037;DHT22;36325;51.512;-0.382;2023-05-08T03:29:53;11.70;99.90
30037;DHT22;36325;51.512;-0.382;2023-05-08T03:32:23;11.70;99.90
30037;DHT22;36325;51.512;-0.382;2023-05-08T03:34:52;11.70;99.90
30037;DHT22;36325;51.512;-0.382;2023-05-08T03:37:20;11.70;99.90
30037;DHT22;36325;51.512;-0.382;2023-05-08T03:39:47;11.70;99.90
30037;DHT22;36325;51.512;-0.382;2023-05-08T03:42:14;11.70;99.90
30037;DHT22;36325;51.512;-0.382;2023-05-08T03:44:49;11.70;99.90
30037;DHT22;36325;51.512;-0.382;2023-05-08T03:47:21;11.70;99.90
30037;DHT22;36325;51.512;-0.382;2023-05-08T03:49:52;9.40;99.90
30037;DHT22;36325;51.512;-0.382;2023-05-08T03:52:20;11.70;99.90
30037;DHT22;36325;51.512;-0.382;2023-05-08T03:54:47;11.60;99.90
30037;DHT22;36325;51.512;-0.382;2023-05-08T03:57:14;11.70;99.90
30037;DHT22;36325;51.512;-0.382;2023-05-08T04:02:24;11.60;99.90
30037;DHT22;36325;51.512;-0.382;2023-05-08T04:05:01;11.60;99.90
30037;DHT22;36325;51.512;-0.382;2023-05-08T04:07:41;11.60;99.90
30037;DHT22;36325;51.512;-0.382;2023-05-08T04:10:18;11.60;99.90
30037;DHT22;36325;51.512;-0.382;2023-05-08T04:13:04;11.60;99.90
30037;DHT22;36325;51.512;-0.382;2023-05-08T04:15:37;11.60;99.90
30037;DHT22;36325;51.512;-0.382;2023-05-08T04:18:08;11.60;99.90
30037;DHT22;36325;51.512;-0.382;2023-05-08T04:20:39;11.60;99.90
30037;DHT22;36325;51.512;-0.382;2023-05-08T04:23:08;11.60;99.90
30037;DHT22;36325;51.512;-0.382;2023-05-08T04:25:41;11.60;99.90
30037;DHT22;36325;51.512;-0.382;2023-05-08T04:28:11;11.60;99.90
30037;DHT22;36325;51.512;-0.382;2023-05-08T04:30:39;11.60;99.90
30037;DHT22;36325;51.512;-0.382;2023-05-08T04:33:07;12.90;99.90
30037;DHT22;36325;51.512;-0.382;2023-05-08T04:35:35;11.60;99.90
30037;DHT22;36325;51.512;-0.382;2023-05-08T04:38:02;11.70;99.90
30037;DHT22;36325;51.512;-0.382;2023-05-08T04:40:30;11.60;99.90
30037;DHT22;36325;51.512;-0.382;2023-05-08T04:45:26;11.70;99.90
30037;DHT22;36325;51.512;-0.382;2023-05-08T04:47:53;11.70;99.90
30037;DHT22;36325;51.512;-0.382;2023-05-08T04:50:21;11.80;99.90
30037;DHT22;36325;51.512;-0.382;2023-05-08T04:52:48;11.80;99.90
30037;DHT22;36325;51.512;-0.382;2023-05-08T04:55:16;11.90;99.90
30037;DHT22;36325;51.512;-0.382;2023-05-08T04:57:43;11.90;99.90
30037;DHT22;36325;51.512;-0.382;2023-05-08T05:00:11;11.90;99.90
30037;DHT22;36325;51.512;-0.382;2023-05-08T05:02:41;11.90;99.90
30037;DHT22;36325;51.512;-0.382;2023-05-08T05:05:09;12.00;99.90
30037;DHT22;36325;51.512;-0.382;2023-05-08T05:07:37;12.00;99.90
30037;DHT22;36325;51.512;-0.382;2023-05-08T05:10:06;12.10;99.90
30037;DHT22;36325;51.512;-0.382;2023-05-08T05:12:34;12.10;99.90
30037;DHT22;36325;51.512;-0.382;2023-05-08T05:15:02;12.10;99.90
30037;DHT22;36325;51.512;-0.382;2023-05-08T05:17:32;12.10;99.90
30037;DHT22;36325;51.512;-0.382;2023-05-08T05:20:01;12.20;99.90
30037;DHT22;36325;51.512;-0.382;2023-05-08T05:22:30;12.20;99.90
30037;DHT22;36325;51.512;-0.382;2023-05-08T05:24:59;12.20;99.90
30037;DHT22;36325;51.512;-0.382;2023-05-08T05:32:22;12.30;99.90
30037;DHT22;36325;51.512;-0.382;2023-05-08T05:34:50;12.30;99.90
30037;DHT22;36325;51.512;-0.382;2023-05-08T05:37:18;12.30;99.90
30037;DHT22;36325;51.512;-0.382;2023-05-08T05:42:13;12.40;99.90
30037;DHT22;36325;51.512;-0.382;2023-05-08T05:44:42;12.40;99.90
30037;DHT22;36325;51.512;-0.382;2023-05-08T05:47:10;12.40;99.90
30037;DHT22;36325;51.512;-0.382;2023-05-08T05:49:39;12.50;99.90
30037;DHT22;36325;51.512;-0.382;2023-05-08T05:52:09;12.50;99.90
30037;DHT22;36325;51.512;-0.382;2023-05-08T05:54:37;12.60;99.90
30037;DHT22;36325;51.512;-0.382;2023-05-08T05:57:04;12.60;99.90
30037;DHT22;36325;51.512;-0.382;2023-05-08T05:59:32;12.60;99.90
30037;DHT22;36325;51.512;-0.382;2023-05-08T06:01:59;12.60;99.90
30037;DHT22;36325;51.512;-0.382;2023-05-08T06:04:26;12.70;99.90
30037;DHT22;36325;51.512;-0.382;2023-05-08T06:06:54;12.70;99.90
30037;DHT22;36325;51.512;-0.382;2023-05-08T06:09:22;12.70;99.90
30037;DHT22;36325;51.512;-0.382;2023-05-08T06:16:47;13.20;99.90
30037;DHT22;36325;51.512;-0.382;2023-05-08T06:19:14;12.90;99.90
30037;DHT22;36325;51.512;-0.382;2023-05-08T06:21:41;12.90;99.90
30037;DHT22;36325;51.512;-0.382;2023-05-08T06:24:09;13.00;99.90
30037;DHT22;36325;51.512;-0.382;2023-05-08T06:26:36;13.00;99.90
30037;DHT22;36325;51.512;-0.382;2023-05-08T06:29:03;13.10;99.90
30037;DHT22;36325;51.512;-0.382;2023-05-08T06:33:58;13.10;99.90
30037;DHT22;36325;51.512;-0.382;2023-05-08T06:38:53;13.10;99.90
30037;DHT22;36325;51.512;-0.382;2023-05-08T06:41:20;13.10;99.90
30037;DHT22;36325;51.512;-0.382;2023-05-08T06:43:47;13.10;99.90
30037;DHT22;36325;51.512;-0.382;2023-05-08T06:46:15;13.10;99.90
30037;DHT22;36325;51.512;-0.382;2023-05-08T06:48:42;13.10;99.90
30037;DHT22;36325;51.512;-0.382;2023-05-08T06:51:09;13.10;99.90
30037;DHT22;36325;51.512;-0.382;2023-05-08T06:53:36;13.10;99.90
30037;DHT22;36325;51.512;-0.382;2023-05-08T06:56:04;13.20;99.90
30037;DHT22;36325;51.512;-0.382;2023-05-08T06:58:31;13.10;99.90
30037;DHT22;36325;51.512;-0.382;2023-05-08T07:00:59;13.10;99.90
30037;DHT22;36325;51.512;-0.382;2023-05-08T07:03:27;13.10;99.90
30037;DHT22;36325;51.512;-0.382;2023-05-08T07:05:55;13.30;99.90
30037;DHT22;36325;51.512;-0.382;2023-05-08T07:08:22;13.30;99.90
30037;DHT22;36325;51.512;-0.382;2023-05-08T07:10:49;13.50;99.90
30037;DHT22;36325;51.512;-0.382;2023-05-08T07:13:16;13.60;99.90
30037;DHT22;36325;51.512;-0.382;2023-05-08T07:15:47;13.70;99.90
30037;DHT22;36325;51.512;-0.382;2023-05-08T07:18:14;13.90;99.90
30037;DHT22;36325;51.512;-0.382;2023-05-08T07:20:42;14.00;99.90
30037;DHT22;36325;51.512;-0.382;2023-05-08T07:23:09;14.00;99.90
30037;DHT22;36325;51.512;-0.382;2023-05-08T07:25:36;14.00;99.90
30037;DHT22;36325;51.512;-0.382;2023-05-08T07:28:03;14.10;99.90
30037;DHT22;36325;51.512;-0.382;2023-05-08T07:30:31;14.00;99.90
30037;DHT22;36325;51.512;-0.382;2023-05-08T07:33:00;14.00;99.90
30037;DHT22;36325;51.512;-0.382;2023-05-08T07:35:27;14.10;99.90
30037;DHT22;36325;51.512;-0.382;2023-05-08T07:37:55;14.10;99.90
30037;DHT22;36325;51.512;-0.382;2023-05-08T07:40:22;14.10;99.90
30037;DHT22;36325;51.512;-0.382;2023-05-08T07:42:49;14.10;99.90
30037;DHT22;36325;51.512;-0.382;2023-05-08T07:45:17;14.20;99.90
30037;DHT22;36325;51.512;-0.382;2023-05-08T07:47:51;14.30;99.90
30037;DHT22;36325;51.512;-0.382;2023-05-08T07:50:20;14.30;99.90
30037;DHT22;36325;51.512;-0.382;2023-05-08T07:52:47;14.40;99.90
30037;DHT22;36325;51.512;-0.382;2023-05-08T07:55:16;14.40;99.90
30037;DHT22;36325;51.512;-0.382;2023-05-08T07:57:44;14.50;99.90
30037;DHT22;36325;51.512;-0.382;2023-05-08T08:00:13;14.50;99.90
30037;DHT22;36325;51.512;-0.382;2023-05-08T08:02:42;14.50;99.90
30037;DHT22;36325;51.512;-0.382;2023-05-08T08:05:10;14.40;99.90
30037;DHT22;36325;51.512;-0.382;2023-05-08T08:07:37;14.40;99.90
30037;DHT22;36325;51.512;-0.382;2023-05-08T08:10:05;14.40;99.90
30037;DHT22;36325;51.512;-0.382;2023-05-08T08:12:33;14.40;99.90
30037;DHT22;36325;51.512;-0.382;2023-05-08T08:15:00;14.40;99.90
30037;DHT22;36325;51.512;-0.382;2023-05-08T08:17:27;14.40;99.90
30037;DHT22;36325;51.512;-0.382;2023-05-08T08:19:55;14.40;99.90
30037;DHT22;36325;51.512;-0.382;2023-05-08T08:22:24;14.40;99.90
30037;DHT22;36325;51.512;-0.382;2023-05-08T08:24:53;14.50;99.90
30037;DHT22;36325;51.512;-0.382;2023-05-08T08:27:21;14.60;99.90
30037;DHT22;36325;51.512;-0.382;2023-05-08T08:29:49;14.60;99.90
30037;DHT22;36325;51.512;-0.382;2023-05-08T08:32:18;14.70;99.90
30037;DHT22;36325;51.512;-0.382;2023-05-08T08:34:45;14.80;99.90
30037;DHT22;36325;51.512;-0.382;2023-05-08T08:39:40;15.00;99.90
30037;DHT22;36325;51.512;-0.382;2023-05-08T08:42:08;15.20;99.90
30037;DHT22;36325;51.512;-0.382;2023-05-08T08:44:35;15.30;99.90
30037;DHT22;36325;51.512;-0.382;2023-05-08T08:47:04;15.40;99.90
30037;DHT22;36325;51.512;-0.382;2023-05-08T08:49:34;15.50;99.90
30037;DHT22;36325;51.512;-0.382;2023-05-08T08:52:07;15.60;99.90
30037;DHT22;36325;51.512;-0.382;2023-05-08T08:54:38;15.70;99.90
30037;DHT22;36325;51.512;-0.382;2023-05-08T08:57:08;15.70;99.90
30037;DHT22;36325;51.512;-0.382;2023-05-08T08:59:39;15.70;99.90
30037;DHT22;36325;51.512;-0.382;2023-05-08T09:02:12;15.70;99.90
30037;DHT22;36325;51.512;-0.382;2023-05-08T09:04:43;15.70;99.90
30037;DHT22;36325;51.512;-0.382;2023-05-08T09:07:11;15.60;99.90
30037;DHT22;36325;51.512;-0.382;2023-05-08T09:09:39;15.50;99.90
30037;DHT22;36325;51.512;-0.382;2023-05-08T09:12:12;15.40;99.90
30037;DHT22;36325;51.512;-0.382;2023-05-08T09:14:39;15.30;99.90
30037;DHT22;36325;51.512;-0.382;2023-05-08T09:17:08;15.40;99.90
30037;DHT22;36325;51.512;-0.382;2023-05-08T09:19:35;15.40;99.90
30037;DHT22;36325;51.512;-0.382;2023-05-08T09:22:03;15.40;99.90
30037;DHT22;36325;51.512;-0.382;2023-05-08T09:24:58;15.40;99.90
30037;DHT22;36325;51.512;-0.382;2023-05-08T09:27:27;15.50;99.90
30037;DHT22;36325;51.512;-0.382;2023-05-08T09:32:24;15.40;99.90
30037;DHT22;36325;51.512;-0.382;2023-05-08T09:34:52;15.40;99.90
30037;DHT22;36325;51.512;-0.382;2023-05-08T09:37:22;16.60;99.90
30037;DHT22;36325;51.512;-0.382;2023-05-08T09:39:50;15.30;99.90
30037;DHT22;36325;51.512;-0.382;2023-05-08T09:42:18;15.20;99.90
30037;DHT22;36325;51.512;-0.382;2023-05-08T09:44:50;15.10;99.90
30037;DHT22;36325;51.512;-0.382;2023-05-08T09:47:22;15.10;99.90
30037;DHT22;36325;51.512;-0.382;2023-05-08T09:50:01;15.10;99.90
30037;DHT22;36325;51.512;-0.382;2023-05-08T09:52:30;15.10;99.90
30037;DHT22;36325;51.512;-0.382;2023-05-08T09:55:08;15.20;99.90
30037;DHT22;36325;51.512;-0.382;2023-05-08T09:57:38;15.20;99.90
30037;DHT22;36325;51.512;-0.382;2023-05-08T10:00:12;15.20;99.90
30037;DHT22;36325;51.512;-0.382;2023-05-08T10:02:41;15.20;99.90
30037;DHT22;36325;51.512;-0.382;2023-05-08T10:05:27;15.30;99.90
30037;DHT22;36325;51.512;-0.382;2023-05-08T10:10:46;15.30;99.90
30037;DHT22;36325;51.512;-0.382;2023-05-08T10:13:14;15.40;99.90
30037;DHT22;36325;51.512;-0.382;2023-05-08T10:15:42;15.50;99.90
30037;DHT22;36325;51.512;-0.382;2023-05-08T10:18:10;15.50;99.90
30037;DHT22;36325;51.512;-0.382;2023-05-08T10:20:40;15.60;99.90
30037;DHT22;36325;51.512;-0.382;2023-05-08T10:23:11;15.70;99.90
30037;DHT22;36325;51.512;-0.382;2023-05-08T10:25:47;15.80;99.90
30037;DHT22;36325;51.512;-0.382;2023-05-08T10:28:37;15.80;99.90
30037;DHT22;36325;51.512;-0.382;2023-05-08T10:31:07;15.90;99.90
30037;DHT22;36325;51.512;-0.382;2023-05-08T10:33:39;16.00;99.90
30037;DHT22;36325;51.512;-0.382;2023-05-08T10:36:07;16.00;99.90
30037;DHT22;36325;51.512;-0.382;2023-05-08T10:38:37;16.10;99.90
30037;DHT22;36325;51.512;-0.382;2023-05-08T10:41:05;13.60;99.90
30037;DHT22;36325;51.512;-0.382;2023-05-08T10:43:33;16.00;99.90
30037;DHT22;36325;51.512;-0.382;2023-05-08T10:46:07;16.00;99.90
30037;DHT22;36325;51.512;-0.382;2023-05-08T10:48:49;16.00;99.90
30037;DHT22;36325;51.512;-0.382;2023-05-08T10:51:42;16.10;99.90
30037;DHT22;36325;51.512;-0.382;2023-05-08T10:54:17;16.40;99.90
30037;DHT22;36325;51.512;-0.382;2023-05-08T10:56:47;16.50;99.90
30037;DHT22;36325;51.512;-0.382;2023-05-08T10:59:18;16.60;99.90
30037;DHT22;36325;51.512;-0.382;2023-05-08T11:01:47;16.70;99.90
30037;DHT22;36325;51.512;-0.382;2023-05-08T11:04:22;16.80;99.90
30037;DHT22;36325;51.512;-0.382;2023-05-08T11:06:50;16.70;99.90
30037;DHT22;36325;51.512;-0.382;2023-05-08T11:09:21;16.60;99.90
30037;DHT22;36325;51.512;-0.382;2023-05-08T11:12:06;16.60;99.90
30037;DHT22;36325;51.512;-0.382;2023-05-08T11:14:35;16.50;99.90
30037;DHT22;36325;51.512;-0.382;2023-05-08T11:17:04;16.40;99.90
30037;DHT22;36325;51.512;-0.382;2023-05-08T11:19:31;16.20;99.90
30037;DHT22;36325;51.512;-0.382;2023-05-08T11:22:20;16.10;99.90
30037;DHT22;36325;51.512;-0.382;2023-05-08T11:27:31;16.10;99.90
30037;DHT22;36325;51.512;-0.382;2023-05-08T11:33:10;15.90;99.90
30037;DHT22;36325;51.512;-0.382;2023-05-08T11:38:25;15.70;99.90
30037;DHT22;36325;51.512;-0.382;2023-05-08T11:40:55;15.70;99.90
30037;DHT22;36325;51.512;-0.382;2023-05-08T11:46:07;15.60;99.90
30037;DHT22;36325;51.512;-0.382;2023-05-08T11:48:39;15.60;99.90
30037;DHT22;36325;51.512;-0.382;2023-05-08T11:51:06;15.50;99.90
30037;DHT22;36325;51.512;-0.382;2023-05-08T11:53:35;15.40;99.90
30037;DHT22;36325;51.512;-0.382;2023-05-08T11:56:03;15.30;99.90
30037;DHT22;36325;51.512;-0.382;2023-05-08T11:58:30;15.20;99.90
30037;DHT22;36325;51.512;-0.382;2023-05-08T12:00:57;15.10;99.90
30037;DHT22;36325;51.512;-0.382;2023-05-08T12:03:24;15.20;99.90
30037;DHT22;36325;51.512;-0.382;2023-05-08T12:05:56;15.10;99.90
30037;DHT22;36325;51.512;-0.382;2023-05-08T12:10:53;14.90;99.90
30037;DHT22;36325;51.512;-0.382;2023-05-08T12:13:25;14.80;99.90
30037;DHT22;36325;51.512;-0.382;2023-05-08T12:15:53;14.80;99.90
30037;DHT22;36325;51.512;-0.382;2023-05-08T12:18:22;14.70;99.90
30037;DHT22;36325;51.512;-0.382;2023-05-08T12:20:57;14.70;99.90
30037;DHT22;36325;51.512;-0.382;2023-05-08T12:23:25;14.60;99.90
30037;DHT22;36325;51.512;-0.382;2023-05-08T12:25:53;14.50;99.90
30037;DHT22;36325;51.512;-0.382;2023-05-08T12:28:21;14.40;99.90
30037;DHT22;36325;51.512;-0.382;2023-05-08T12:30:49;14.40;99.90
30037;DHT22;36325;51.512;-0.382;2023-05-08T12:33:17;14.40;99.90
30037;DHT22;36325;51.512;-0.382;2023-05-08T12:35:45;14.40;99.90
30037;DHT22;36325;51.512;-0.382;2023-05-08T12:38:12;14.40;99.90
30037;DHT22;36325;51.512;-0.382;2023-05-08T12:40:45;14.30;99.90
30037;DHT22;36325;51.512;-0.382;2023-05-08T12:43:12;14.40;99.90
30037;DHT22;36325;51.512;-0.382;2023-05-08T12:45:41;14.40;99.90
30037;DHT22;36325;51.512;-0.382;2023-05-08T12:48:12;14.50;99.90
30037;DHT22;36325;51.512;-0.382;2023-05-08T12:50:45;14.50;99.90
30037;DHT22;36325;51.512;-0.382;2023-05-08T12:53:15;14.50;99.90
30037;DHT22;36325;51.512;-0.382;2023-05-08T12:55:56;14.60;99.90
30037;DHT22;36325;51.512;-0.382;2023-05-08T12:58:31;14.70;99.90
30037;DHT22;36325;51.512;-0.382;2023-05-08T13:01:08;14.80;99.90
30037;DHT22;36325;51.512;-0.382;2023-05-08T13:03:38;14.90;99.90
30037;DHT22;36325;51.512;-0.382;2023-05-08T13:06:06;14.90;99.90
30037;DHT22;36325;51.512;-0.382;2023-05-08T13:08:36;15.00;99.90
30037;DHT22;36325;51.512;-0.382;2023-05-08T13:11:04;15.10;99.90
30037;DHT22;36325;51.512;-0.382;2023-05-08T13:13:34;15.10;99.90
30037;DHT22;36325;51.512;-0.382;2023-05-08T13:16:05;15.10;99.90
30037;DHT22;36325;51.512;-0.382;2023-05-08T13:18:33;15.10;99.90
30037;DHT22;36325;51.512;-0.382;2023-05-08T13:21:03;15.10;99.90
30037;DHT22;36325;51.512;-0.382;2023-05-08T13:23:31;15.20;99.90
30037;DHT22;36325;51.512;-0.382;2023-05-08T13:25:59;15.20;99.90
30037;DHT22;36325;51.512;-0.382;2023-05-08T13:28:26;15.30;99.90
30037;DHT22;36325;51.512;-0.382;2023-05-08T13:30:53;15.30;99.90
30037;DHT22;36325;51.512;-0.382;2023-05-08T13:33:21;15.30;99.90
30037;DHT22;36325;51.512;-0.382;2023-05-08T13:35:48;15.30;99.90
30037;DHT22;36325;51.512;-0.382;2023-05-08T13:38:15;14.90;99.90
30037;DHT22;36325;51.512;-0.382;2023-05-08T13:40:42;15.60;99.90
30037;DHT22;36325;51.512;-0.382;2023-05-08T13:43:09;15.80;99.90
30037;DHT22;36325;51.512;-0.382;2023-05-08T13:45:36;15.90;99.90
30037;DHT22;36325;51.512;-0.382;2023-05-08T13:48:04;16.00;99.90
30037;DHT22;36325;51.512;-0.382;2023-05-08T13:50:31;16.00;99.90
30037;DHT22;36325;51.512;-0.382;2023-05-08T13:52:58;16.10;99.90
30037;DHT22;36325;51.512;-0.382;2023-05-08T13:55:25;16.00;99.90
30037;DHT22;36325;51.512;-0.382;2023-05-08T13:57:52;16.00;99.90
30037;DHT22;36325;51.512;-0.382;2023-05-08T14:00:20;15.90;99.90
30037;DHT22;36325;51.512;-0.382;2023-05-08T14:02:47;15.80;99.90
30037;DHT22;36325;51.512;-0.382;2023-05-08T14:05:16;15.80;99.90
30037;DHT22;36325;51.512;-0.382;2023-05-08T14:07:43;15.80;99.90
30037;DHT22;36325;51.512;-0.382;2023-05-08T14:10:11;15.70;99.90
30037;DHT22;36325;51.512;-0.382;2023-05-08T14:12:38;15.70;99.90
30037;DHT22;36325;51.512;-0.382;2023-05-08T14:15:06;15.70;99.90
30037;DHT22;36325;51.512;-0.382;2023-05-08T14:17:34;15.80;99.90
30037;DHT22;36325;51.512;-0.382;2023-05-08T14:20:02;15.80;99.90
30037;DHT22;36325;51.512;-0.382;2023-05-08T14:22:30;15.90;99.90
30037;DHT22;36325;51.512;-0.382;2023-05-08T14:24:57;15.90;99.90
30037;DHT22;36325;51.512;-0.382;2023-05-08T14:27:24;15.90;99.90
30037;DHT22;36325;51.512;-0.382;2023-05-08T14:29:51;16.00;99.90
30037;DHT22;36325;51.512;-0.382;2023-05-08T14:32:20;16.10;99.90
30037;DHT22;36325;51.512;-0.382;2023-05-08T14:34:47;16.10;99.90
30037;DHT22;36325;51.512;-0.382;2023-05-08T14:37:14;16.10;99.90
30037;DHT22;36325;51.512;-0.382;2023-05-08T14:39:42;16.20;99.90
30037;DHT22;36325;51.512;-0.382;2023-05-08T14:42:11;16.30;99.90
30037;DHT22;36325;51.512;-0.382;2023-05-08T14:44:41;16.50;99.90
30037;DHT22;36325;51.512;-0.382;2023-05-08T14:47:08;16.60;99.90
30037;DHT22;36325;51.512;-0.382;2023-05-08T14:49:35;16.60;99.90
30037;DHT22;36325;51.512;-0.382;2023-05-08T14:52:05;16.50;99.90
30037;DHT22;36325;51.512;-0.382;2023-05-08T14:54:32;16.30;99.90
30037;DHT22;36325;51.512;-0.382;2023-05-08T14:57:00;16.20;99.90
30037;DHT22;36325;51.512;-0.382;2023-05-08T14:59:27;16.30;99.90
30037;DHT22;36325;51.512;-0.382;2023-05-08T15:01:54;16.30;99.90
30037;DHT22;36325;51.512;-0.382;2023-05-08T15:04:22;16.60;99.90
30037;DHT22;36325;51.512;-0.382;2023-05-08T15:06:49;16.40;99.90
30037;DHT22;36325;51.512;-0.382;2023-05-08T15:09:16;16.40;99.90
30037;DHT22;36325;51.512;-0.382;2023-05-08T15:11:43;16.40;99.90
30037;DHT22;36325;51.512;-0.382;2023-05-08T15:14:10;16.40;99.90
30037;DHT22;36325;51.512;-0.382;2023-05-08T15:16:38;16.40;99.90
30037;DHT22;36325;51.512;-0.382;2023-05-08T15:19:05;16.30;99.90
30037;DHT22;36325;51.512;-0.382;2023-05-08T15:21:32;16.10;99.90
30037;DHT22;36325;51.512;-0.382;2023-05-08T15:23:59;16.00;99.90
30037;DHT22;36325;51.512;-0.382;2023-05-08T15:26:26;16.00;99.90
30037;DHT22;36325;51.512;-0.382;2023-05-08T15:28:53;15.80;99.90
30037;DHT22;36325;51.512;-0.382;2023-05-08T15:31:21;15.80;99.90
30037;DHT22;36325;51.512;-0.382;2023-05-08T15:33:48;15.70;99.90
30037;DHT22;36325;51.512;-0.382;2023-05-08T15:36:15;15.70;99.90
30037;DHT22;36325;51.512;-0.382;2023-05-08T15:38:42;15.70;99.90
30037;DHT22;36325;51.512;-0.382;2023-05-08T15:41:11;15.60;99.90
30037;DHT22;36325;51.512;-0.382;2023-05-08T15:43:41;15.50;99.90
30037;DHT22;36325;51.512;-0.382;2023-05-08T15:46:11;15.40;99.90
30037;DHT22;36325;51.512;-0.382;2023-05-08T15:48:38;15.30;99.90
30037;DHT22;36325;51.512;-0.382;2023-05-08T15:51:05;15.20;99.90
30037;DHT22;36325;51.512;-0.382;2023-05-08T15:53:32;15.20;99.90
30037;DHT22;36325;51.512;-0.382;2023-05-08T15:56:03;15.10;99.90
30037;DHT22;36325;51.512;-0.382;2023-05-08T15:58:31;15.10;99.90
30037;DHT22;36325;51.512;-0.382;2023-05-08T16:00:58;15.00;99.90
30037;DHT22;36325;51.512;-0.382;2023-05-08T16:03:25;14.90;99.90
30037;DHT22;36325;51.512;-0.382;2023-05-08T16:05:52;15.00;99.90
30037;DHT22;36325;51.512;-0.382;2023-05-08T16:08:19;15.00;99.90
30037;DHT22;36325;51.512;-0.382;2023-05-08T16:10:47;15.00;99.90
30037;DHT22;36325;51.512;-0.382;2023-05-08T16:13:14;14.90;99.90
30037;DHT22;36325;51.512;-0.382;2023-05-08T16:15:42;14.90;99.90
30037;DHT22;36325;51.512;-0.382;2023-05-08T16:18:09;14.90;99.90
30037;DHT22;36325;51.512;-0.382;2023-05-08T16:20:39;14.80;99.90
30037;DHT22;36325;51.512;-0.382;2023-05-08T16:23:06;13.60;99.90
30037;DHT22;36325;51.512;-0.382;2023-05-08T16:25:33;14.80;99.90
30037;DHT22;36325;51.512;-0.382;2023-05-08T16:28:01;14.80;99.90
30037;DHT22;36325;51.512;-0.382;2023-05-08T16:30:28;14.70;99.90
30037;DHT22;36325;51.512;-0.382;2023-05-08T16:32:56;14.70;99.90
30037;DHT22;36325;51.512;-0.382;2023-05-08T16:35:23;14.70;99.90
30037;DHT22;36325;51.512;-0.382;2023-05-08T16:37:50;14.70;99.90
30037;DHT22;36325;51.512;-0.382;2023-05-08T16:40:20;14.70;99.90